createdAt,value
2017-06-26T00:01:30.725Z,100306
2017-06-26T00:03:58.871Z,100315
2017-06-26T00:06:26.404Z,100308
2017-06-26T00:08:53.971Z,100312
2017-06-26T00:11:21.379Z,100312
2017-06-26T00:13:48.687Z,100315
2017-06-26T00:16:16.231Z,100316
2017-06-26T00:18:43.997Z,100319
2017-06-26T00:21:18.480Z,100320
2017-06-26T00:23:46.011Z,100313
2017-06-26T00:26:13.436Z,100307
2017-06-26T00:28:40.754Z,100312
2017-06-26T00:31:08.306Z,100319
2017-06-26T00:33:35.607Z,100316
2017-06-26T00:36:03.205Z,100311
2017-06-26T00:38:30.510Z,100314
2017-06-26T00:40:57.715Z,100317
2017-06-26T00:43:25.374Z,100315
2017-06-26T00:45:52.791Z,100325
2017-06-26T00:48:20.412Z,100335
2017-06-26T00:50:48.046Z,100325
2017-06-26T00:53:15.398Z,100319
2017-06-26T00:55:50.253Z,100317
2017-06-26T00:58:17.550Z,100320
2017-06-26T01:00:46.000Z,100315
2017-06-26T01:03:13.676Z,100311
2017-06-26T01:05:45.879Z,100316
2017-06-26T01:08:20.479Z,100318
2017-06-26T01:10:48.177Z,100320
2017-06-26T01:13:15.500Z,100318
2017-06-26T01:15:46.088Z,100320
2017-06-26T01:18:18.442Z,100318
2017-06-26T01:20:46.028Z,100319
2017-06-26T01:23:14.442Z,100325
2017-06-26T01:25:46.022Z,100325
2017-06-26T01:28:13.369Z,100323
2017-06-26T01:30:48.146Z,100325
2017-06-26T01:33:15.438Z,100314
2017-06-26T01:35:46.694Z,100315
2017-06-26T01:38:14.013Z,100315
2017-06-26T01:40:41.976Z,100314
2017-06-26T01:43:14.391Z,100307
2017-06-26T01:45:42.399Z,100320
2017-06-26T01:48:09.975Z,100309
2017-06-26T01:50:37.150Z,100315
2017-06-26T01:53:04.477Z,100307
2017-06-26T01:55:32.502Z,100311
2017-06-26T01:57:59.829Z,100307
2017-06-26T02:00:30.013Z,100302
2017-06-26T02:02:57.635Z,100309
2017-06-26T02:05:25.677Z,100309
2017-06-26T02:07:52.987Z,100306
2017-06-26T02:10:20.406Z,100307
2017-06-26T02:12:48.004Z,100307
2017-06-26T02:15:22.969Z,100303
2017-06-26T08:08:21.962Z,100455
2017-06-26T08:10:49.227Z,100452
2017-06-26T08:13:16.898Z,100451
2017-06-26T08:15:44.182Z,100448
2017-06-26T08:18:11.470Z,100455
2017-06-26T08:20:38.758Z,100458
2017-06-26T08:23:06.046Z,100453
2017-06-26T08:25:33.313Z,100455
2017-06-26T08:28:00.595Z,100452
2017-06-26T08:30:27.890Z,100457
2017-06-26T08:32:55.365Z,100461
2017-06-26T08:35:22.652Z,100452
2017-06-26T08:37:49.931Z,100458
2017-06-26T08:40:17.224Z,100449
2017-06-26T08:42:44.517Z,100454
2017-06-26T08:45:11.785Z,100459
2017-06-26T08:47:39.444Z,100456
2017-06-26T08:50:06.729Z,100454
2017-06-26T08:52:34.001Z,100464
2017-06-26T08:55:01.273Z,100457
2017-06-26T08:57:28.536Z,100459
2017-06-26T08:59:55.804Z,100457
2017-06-26T09:02:23.115Z,100458
2017-06-26T09:04:50.384Z,100457
2017-06-26T09:07:17.675Z,100457
2017-06-26T09:09:44.971Z,100463
2017-06-26T09:12:12.245Z,100457
2017-06-26T09:14:39.525Z,100457
2017-06-26T09:17:06.802Z,100439
2017-06-26T09:19:34.072Z,100448
2017-06-26T09:22:01.347Z,100446
2017-06-26T09:24:28.625Z,100442
2017-06-26T09:26:56.288Z,100439
2017-06-26T09:29:23.568Z,100440
2017-06-26T09:31:50.855Z,100454
2017-06-26T09:34:18.122Z,100451
2017-06-26T11:41:31.574Z,100493
2017-06-26T11:43:58.844Z,100484
2017-06-26T11:46:26.170Z,100493
2017-06-26T11:48:53.772Z,100478
2017-06-26T11:51:21.043Z,100484
2017-06-26T11:53:51.005Z,100480
2017-06-26T11:56:18.335Z,100482
2017-06-26T11:58:45.607Z,100483
2017-06-26T12:01:13.517Z,100483
2017-06-26T12:03:41.088Z,100489
2017-06-26T12:06:08.363Z,100490
2017-06-26T12:08:35.645Z,100489
2017-06-26T12:11:02.908Z,100487
2017-06-26T12:13:30.262Z,100499
2017-06-26T12:15:57.525Z,100489
2017-06-26T12:18:24.796Z,100487
2017-06-26T12:20:52.055Z,100486
2017-06-26T12:23:19.344Z,100496
2017-06-26T12:25:46.635Z,100492
2017-06-26T12:28:13.919Z,100477
2017-06-26T12:30:41.203Z,100491
2017-06-26T12:33:08.487Z,100479
2017-06-26T12:35:35.762Z,100485
2017-06-26T12:38:03.087Z,100489
2017-06-26T12:40:30.365Z,100480
2017-06-26T12:42:57.648Z,100491
2017-06-26T12:45:24.920Z,100501
2017-06-26T12:47:52.184Z,100504
2017-06-26T12:50:19.451Z,100494
2017-06-26T12:52:46.724Z,100492
2017-06-26T12:55:15.509Z,100492
2017-06-26T12:57:43.192Z,100489
2017-06-26T13:00:10.573Z,100495
2017-06-26T13:02:38.030Z,100487
2017-06-26T13:05:05.313Z,100491
2017-06-26T13:07:32.951Z,100474
2017-06-26T13:10:00.648Z,100477
2017-06-26T13:12:28.100Z,100487
2017-06-26T13:14:55.554Z,100489
2017-06-26T13:17:22.838Z,100476
2017-06-26T13:19:50.878Z,100476
2017-06-26T13:22:18.192Z,100476
2017-06-26T13:24:45.485Z,100481
2017-06-26T13:27:12.804Z,100478
2017-06-26T13:29:40.293Z,100474
2017-06-26T13:32:07.757Z,100467
2017-06-26T13:34:35.211Z,100471
2017-06-26T13:37:02.516Z,100473
2017-06-26T13:39:29.813Z,100476
2017-06-26T13:41:57.313Z,100470
2017-06-26T13:44:25.009Z,100477
2017-06-26T13:46:52.301Z,100469
2017-06-26T13:49:19.600Z,100475
2017-06-26T13:51:46.901Z,100471
2017-06-26T13:54:14.327Z,100471
2017-06-26T13:56:41.611Z,100466
2017-06-26T13:59:08.898Z,100464
2017-06-26T14:01:36.584Z,100462
2017-06-26T14:04:04.156Z,100461
2017-06-26T14:06:31.542Z,100457
2017-06-26T14:08:59.045Z,100448
2017-06-26T14:11:26.714Z,100450
2017-06-26T14:13:54.286Z,100447
2017-06-26T14:16:21.573Z,100454
2017-06-26T14:18:48.854Z,100458
2017-06-26T14:21:16.527Z,100449
2017-06-26T14:23:43.820Z,100456
2017-06-26T14:26:11.134Z,100450
2017-06-26T14:28:38.432Z,100448
2017-06-26T14:31:05.877Z,100453
2017-06-26T14:33:33.267Z,100444
2017-06-26T14:36:00.549Z,100450
2017-06-26T14:38:28.630Z,100457
2017-06-26T14:40:56.251Z,100458
2017-06-26T14:43:23.706Z,100451
2017-06-26T14:45:51.003Z,100448
2017-06-26T14:48:18.301Z,100440
2017-06-26T14:50:45.593Z,100446
2017-06-26T14:53:12.904Z,100440
2017-06-26T14:55:40.186Z,100441
2017-06-26T14:58:08.041Z,100434
2017-06-26T15:00:35.360Z,100447
2017-06-26T15:03:02.662Z,100443
2017-06-26T15:05:30.193Z,100449
2017-06-26T15:07:57.678Z,100435
2017-06-26T15:10:25.199Z,100442
2017-06-26T15:12:52.582Z,100439
2017-06-26T15:15:20.413Z,100444
2017-06-26T15:17:47.715Z,100449
2017-06-26T15:20:15.002Z,100452
2017-06-26T15:22:42.286Z,100435
2017-06-26T15:25:09.629Z,100434
2017-06-26T15:27:36.939Z,100432
2017-06-26T15:30:04.253Z,100426
2017-06-26T15:32:31.544Z,100428
2017-06-26T15:34:58.845Z,100430
2017-06-26T15:37:26.138Z,100428
2017-06-26T15:39:53.423Z,100421
2017-06-26T15:42:21.149Z,100422
2017-06-26T15:44:48.457Z,100413
2017-06-26T15:47:16.424Z,100417
2017-06-26T15:49:43.750Z,100421
2017-06-26T15:52:11.216Z,100414
2017-06-26T15:54:38.726Z,100409
2017-06-26T15:57:06.043Z,100411
2017-06-26T15:59:33.655Z,100406
2017-06-26T16:02:01.111Z,100398
2017-06-26T16:04:29.563Z,100395
2017-06-26T16:06:56.995Z,100397
2017-06-26T16:09:25.289Z,100394
2017-06-26T16:11:52.588Z,100392
2017-06-26T16:14:19.874Z,100401
2017-06-26T16:16:47.161Z,100412
2017-06-26T16:19:14.455Z,100408
2017-06-26T16:21:41.749Z,100399
2017-06-26T16:24:09.044Z,100399
2017-06-26T16:26:36.600Z,100395
2017-06-26T16:29:03.904Z,100398
2017-06-26T16:31:31.196Z,100398
2017-06-26T16:33:58.484Z,100405
2017-06-26T16:36:25.891Z,100398
2017-06-26T16:38:53.194Z,100403
2017-06-26T16:41:20.496Z,100391
2017-06-26T16:43:47.770Z,100400
2017-06-26T16:46:15.069Z,100408
2017-06-26T16:48:42.608Z,100399
2017-06-26T16:51:10.586Z,100391
2017-06-26T16:53:38.091Z,100399
2017-06-26T16:56:05.362Z,100391
2017-06-26T18:18:11.038Z,100351
2017-06-26T18:20:38.351Z,100349
2017-06-26T18:23:05.652Z,100347
2017-06-26T18:25:32.961Z,100344
2017-06-26T18:28:00.285Z,100348
2017-06-26T18:30:27.570Z,100343
2017-06-26T18:32:54.889Z,100344
2017-06-26T18:35:22.196Z,100345
2017-06-26T18:37:49.681Z,100345
2017-06-26T18:40:17.088Z,100350
2017-06-26T18:42:44.441Z,100352
2017-06-26T18:45:11.732Z,100347
2017-06-26T18:47:39.056Z,100350
2017-06-26T18:50:06.758Z,100351
2017-06-26T18:52:34.058Z,100349
2017-06-26T18:55:01.375Z,100342
2017-06-26T18:57:29.101Z,100345
2017-06-26T18:59:56.381Z,100346
2017-06-26T19:02:23.694Z,100344
2017-06-26T19:04:51.396Z,100354
2017-06-26T19:07:18.742Z,100344
2017-06-26T19:09:46.983Z,100341
2017-06-26T19:12:14.312Z,100345
2017-06-26T19:14:41.990Z,100342
2017-06-26T19:17:09.742Z,100352
2017-06-26T19:19:37.190Z,100353
2017-06-26T19:22:04.481Z,100358
2017-06-26T19:24:31.777Z,100357
2017-06-26T19:26:59.897Z,100367
2017-06-26T19:29:27.266Z,100366
2017-06-26T19:31:54.960Z,100370
2017-06-26T19:34:22.268Z,100373
2017-06-26T19:36:50.592Z,100372
2017-06-26T19:39:18.350Z,100372
2017-06-26T19:41:45.652Z,100375
2017-06-26T19:44:12.962Z,100378
2017-06-26T19:46:40.266Z,100381
2017-06-26T19:49:08.235Z,100375
2017-06-26T19:51:36.764Z,100387
2017-06-26T19:54:04.197Z,100393
2017-06-26T19:56:31.498Z,100391
2017-06-26T19:58:58.848Z,100389
2017-06-26T20:01:26.215Z,100390
2017-06-26T20:03:53.526Z,100402
2017-06-26T20:06:21.025Z,100401
2017-06-26T20:08:48.326Z,100409
2017-06-26T20:11:15.640Z,100403
2017-06-26T20:13:42.970Z,100409
2017-06-26T20:16:10.281Z,100411
2017-06-26T20:18:37.590Z,100418
2017-06-26T20:21:05.305Z,100427
2017-06-26T20:23:32.609Z,100425
2017-06-26T20:25:59.922Z,100420
2017-06-26T20:28:27.614Z,100430
2017-06-26T20:30:54.926Z,100430
2017-06-26T20:33:22.244Z,100424
2017-06-26T20:35:50.016Z,100425
2017-06-26T20:38:17.741Z,100434
2017-06-26T20:40:45.207Z,100431
2017-06-26T20:43:12.514Z,100435
2017-06-26T20:45:39.821Z,100438
2017-06-26T20:48:07.548Z,100438
2017-06-26T20:50:34.857Z,100433
2017-06-26T20:53:02.163Z,100435
2017-06-26T20:55:29.512Z,100443
2017-06-26T20:57:57.232Z,100442
2017-06-26T21:00:24.551Z,100444
2017-06-26T21:02:51.987Z,100441
2017-06-26T21:05:19.470Z,100456
2017-06-26T21:07:46.868Z,100452
2017-06-26T21:10:14.242Z,100448
2017-06-26T21:12:41.614Z,100457
2017-06-26T21:15:09.005Z,100466
2017-06-26T21:17:36.773Z,100452
2017-06-26T21:20:07.103Z,100461
2017-06-26T21:22:34.461Z,100460
2017-06-26T21:25:01.829Z,100458
2017-06-26T21:27:29.137Z,100460
2017-06-26T21:29:56.452Z,100461
2017-06-26T21:32:23.757Z,100468
2017-06-26T21:34:51.073Z,100465
2017-06-26T21:37:18.792Z,100466
2017-06-26T21:39:46.124Z,100447
2017-06-26T21:42:13.833Z,100454
2017-06-26T21:44:41.153Z,100451
2017-06-26T21:47:08.455Z,100460
2017-06-26T21:49:35.772Z,100454
2017-06-26T21:52:03.073Z,100457
2017-06-26T21:54:30.384Z,100449
2017-06-26T21:56:57.708Z,100450
2017-06-26T21:59:24.993Z,100458
2017-06-26T22:01:52.286Z,100457
2017-06-26T22:04:19.990Z,100461
2017-06-26T22:06:47.385Z,100454
2017-06-26T22:09:14.713Z,100464
2017-06-26T22:11:42.054Z,100454
2017-06-26T22:14:09.383Z,100461
2017-06-26T22:16:36.676Z,100464
2017-06-26T22:19:04.641Z,100459
2017-06-26T22:21:31.952Z,100453
2017-06-26T22:23:59.253Z,100450
2017-06-26T22:26:26.955Z,100450
2017-06-26T22:28:54.270Z,100444
2017-06-26T22:31:21.590Z,100441
2017-06-26T22:33:49.286Z,100439
2017-06-26T22:36:16.592Z,100442
2017-06-26T22:38:43.894Z,100444
2017-06-26T22:43:47.421Z,100452
2017-06-26T22:46:14.708Z,100452
2017-06-26T22:48:42.000Z,100452
2017-06-26T22:51:09.282Z,100450
2017-06-26T22:53:36.572Z,100461
2017-06-26T22:56:03.868Z,100454
2017-06-26T22:58:31.146Z,100451
2017-06-26T23:00:58.441Z,100447
2017-06-26T23:03:25.741Z,100454
2017-06-26T23:05:53.437Z,100457
2017-06-26T23:08:20.748Z,100455
2017-06-26T23:10:48.074Z,100445
2017-06-26T23:13:15.531Z,100457
2017-06-26T23:15:43.056Z,100446
2017-06-26T23:18:10.365Z,100446
2017-06-26T23:20:37.665Z,100446
2017-06-26T23:23:04.941Z,100449
2017-06-26T23:25:32.221Z,100446
2017-06-26T23:27:59.717Z,100454
2017-06-26T23:30:27.009Z,100450
2017-06-26T23:32:54.307Z,100445
2017-06-26T23:35:21.989Z,100442
2017-06-26T23:37:49.274Z,100440
2017-06-26T23:40:16.569Z,100440
2017-06-26T23:42:44.166Z,100445
2017-06-26T23:45:11.622Z,100446
2017-06-26T23:47:39.146Z,100442
2017-06-26T23:50:06.472Z,100443
2017-06-26T23:52:33.950Z,100447
2017-06-26T23:55:01.658Z,100439
2017-06-26T23:57:29.201Z,100432
2017-06-26T23:59:56.924Z,100428
